sensor_id;sensor_type;location;lat;lon;timestamp;P1;durP1;ratioP1;P2;durP2;ratioP2
66478;SDS011;53294;47.912;13.526;2023-02-28T00:00:30;10.60;;;6.10;;
66478;SDS011;53294;47.912;13.526;2023-02-28T00:02:58;10.68;;;6.50;;
66478;SDS011;53294;47.912;13.526;2023-02-28T00:05:25;14.43;;;6.53;;
66478;SDS011;53294;47.912;13.526;2023-02-28T00:07:53;9.68;;;6.15;;
66478;SDS011;53294;47.912;13.526;2023-02-28T00:10:22;11.52;;;7.88;;
66478;SDS011;53294;47.912;13.526;2023-02-28T00:12:54;12.02;;;7.03;;
66478;SDS011;53294;47.912;13.526;2023-02-28T00:15:24;9.98;;;6.57;;
66478;SDS011;53294;47.912;13.526;2023-02-28T00:17:52;10.13;;;7.13;;
66478;SDS011;53294;47.912;13.526;2023-02-28T00:20:19;10.65;;;6.28;;
66478;SDS011;53294;47.912;13.526;2023-02-28T00:22:47;10.73;;;7.18;;
66478;SDS011;53294;47.912;13.526;2023-02-28T00:25:16;13.00;;;6.90;;
66478;SDS011;53294;47.912;13.526;2023-02-28T00:27:47;13.23;;;7.40;;
66478;SDS011;53294;47.912;13.526;2023-02-28T00:30:16;13.45;;;7.05;;
66478;SDS011;53294;47.912;13.526;2023-02-28T00:32:44;11.82;;;7.05;;
66478;SDS011;53294;47.912;13.526;2023-02-28T00:35:12;11.38;;;6.63;;
66478;SDS011;53294;47.912;13.526;2023-02-28T00:37:39;11.05;;;6.95;;
66478;SDS011;53294;47.912;13.526;2023-02-28T00:40:06;14.02;;;7.03;;
66478;SDS011;53294;47.912;13.526;2023-02-28T00:42:33;13.82;;;7.40;;
66478;SDS011;53294;47.912;13.526;2023-02-28T00:45:01;12.25;;;7.55;;
66478;SDS011;53294;47.912;13.526;2023-02-28T00:47:30;15.20;;;8.02;;
66478;SDS011;53294;47.912;13.526;2023-02-28T00:49:58;12.18;;;7.00;;
66478;SDS011;53294;47.912;13.526;2023-02-28T00:52:24;13.77;;;7.28;;
66478;SDS011;53294;47.912;13.526;2023-02-28T00:54:51;13.15;;;7.60;;
66478;SDS011;53294;47.912;13.526;2023-02-28T00:57:18;11.73;;;7.45;;
66478;SDS011;53294;47.912;13.526;2023-02-28T00:59:44;12.85;;;7.68;;
66478;SDS011;53294;47.912;13.526;2023-02-28T01:02:11;11.73;;;7.82;;
66478;SDS011;53294;47.912;13.526;2023-02-28T01:04:38;12.75;;;8.50;;
66478;SDS011;53294;47.912;13.526;2023-02-28T01:07:05;16.33;;;9.38;;
66478;SDS011;53294;47.912;13.526;2023-02-28T01:09:32;14.50;;;9.02;;
66478;SDS011;53294;47.912;13.526;2023-02-28T01:11:58;14.23;;;8.25;;
66478;SDS011;53294;47.912;13.526;2023-02-28T01:14:25;17.13;;;9.38;;
66478;SDS011;53294;47.912;13.526;2023-02-28T01:16:52;14.00;;;8.18;;
66478;SDS011;53294;47.912;13.526;2023-02-28T01:19:18;15.93;;;9.27;;
66478;SDS011;53294;47.912;13.526;2023-02-28T01:21:45;15.38;;;9.73;;
66478;SDS011;53294;47.912;13.526;2023-02-28T01:24:12;16.83;;;9.30;;
66478;SDS011;53294;47.912;13.526;2023-02-28T01:26:39;17.73;;;9.73;;
66478;SDS011;53294;47.912;13.526;2023-02-28T01:29:05;18.85;;;9.75;;
66478;SDS011;53294;47.912;13.526;2023-02-28T01:31:32;16.65;;;9.95;;
66478;SDS011;53294;47.912;13.526;2023-02-28T01:33:59;19.73;;;10.40;;
66478;SDS011;53294;47.912;13.526;2023-02-28T01:36:26;14.73;;;9.32;;
66478;SDS011;53294;47.912;13.526;2023-02-28T01:38:52;16.45;;;10.18;;
66478;SDS011;53294;47.912;13.526;2023-02-28T01:41:21;16.80;;;9.15;;
66478;SDS011;53294;47.912;13.526;2023-02-28T01:46:15;15.38;;;9.77;;
66478;SDS011;53294;47.912;13.526;2023-02-28T01:48:46;17.95;;;11.07;;
66478;SDS011;53294;47.912;13.526;2023-02-28T01:51:44;16.75;;;9.88;;
66478;SDS011;53294;47.912;13.526;2023-02-28T01:54:27;18.88;;;10.73;;
66478;SDS011;53294;47.912;13.526;2023-02-28T01:59:28;22.13;;;12.00;;
66478;SDS011;53294;47.912;13.526;2023-02-28T02:02:01;18.70;;;10.68;;
66478;SDS011;53294;47.912;13.526;2023-02-28T02:04:32;17.27;;;10.30;;
66478;SDS011;53294;47.912;13.526;2023-02-28T02:07:03;22.08;;;12.50;;
66478;SDS011;53294;47.912;13.526;2023-02-28T02:09:30;19.33;;;11.07;;
66478;SDS011;53294;47.912;13.526;2023-02-28T02:11:57;17.63;;;10.05;;
66478;SDS011;53294;47.912;13.526;2023-02-28T02:22:50;20.13;;;10.55;;
66478;SDS011;53294;47.912;13.526;2023-02-28T02:25:45;19.23;;;10.85;;
66478;SDS011;53294;47.912;13.526;2023-02-28T02:39:53;16.55;;;10.30;;
66478;SDS011;53294;47.912;13.526;2023-02-28T02:42:42;20.15;;;11.48;;
66478;SDS011;53294;47.912;13.526;2023-02-28T02:48:03;19.55;;;11.40;;
66478;SDS011;53294;47.912;13.526;2023-02-28T02:50:37;19.83;;;11.02;;
66478;SDS011;53294;47.912;13.526;2023-02-28T02:53:07;21.92;;;12.00;;
66478;SDS011;53294;47.912;13.526;2023-02-28T02:55:38;19.45;;;10.77;;
66478;SDS011;53294;47.912;13.526;2023-02-28T02:58:09;23.42;;;12.82;;
66478;SDS011;53294;47.912;13.526;2023-02-28T03:00:42;19.77;;;10.70;;
66478;SDS011;53294;47.912;13.526;2023-02-28T03:03:14;18.20;;;10.98;;
66478;SDS011;53294;47.912;13.526;2023-02-28T03:05:47;24.95;;;12.80;;
66478;SDS011;53294;47.912;13.526;2023-02-28T03:08:15;19.10;;;11.13;;
66478;SDS011;53294;47.912;13.526;2023-02-28T03:10:44;21.50;;;12.63;;
66478;SDS011;53294;47.912;13.526;2023-02-28T03:22:12;20.17;;;12.07;;
66478;SDS011;53294;47.912;13.526;2023-02-28T03:27:11;21.50;;;11.95;;
66478;SDS011;53294;47.912;13.526;2023-02-28T03:29:46;21.20;;;12.40;;
66478;SDS011;53294;47.912;13.526;2023-02-28T03:32:23;24.50;;;14.35;;
66478;SDS011;53294;47.912;13.526;2023-02-28T03:37:40;21.27;;;12.13;;
66478;SDS011;53294;47.912;13.526;2023-02-28T03:40:11;24.10;;;13.68;;
66478;SDS011;53294;47.912;13.526;2023-02-28T03:42:44;29.35;;;13.77;;
66478;SDS011;53294;47.912;13.526;2023-02-28T03:45:16;20.08;;;12.38;;
66478;SDS011;53294;47.912;13.526;2023-02-28T03:50:58;21.70;;;12.13;;
66478;SDS011;53294;47.912;13.526;2023-02-28T03:53:30;22.63;;;12.32;;
66478;SDS011;53294;47.912;13.526;2023-02-28T03:56:05;23.50;;;12.77;;
66478;SDS011;53294;47.912;13.526;2023-02-28T03:58:44;20.52;;;11.85;;
66478;SDS011;53294;47.912;13.526;2023-02-28T04:01:25;23.52;;;12.30;;
66478;SDS011;53294;47.912;13.526;2023-02-28T04:03:59;19.90;;;11.98;;
66478;SDS011;53294;47.912;13.526;2023-02-28T04:06:26;21.17;;;11.27;;
66478;SDS011;53294;47.912;13.526;2023-02-28T04:08:53;22.42;;;11.07;;
66478;SDS011;53294;47.912;13.526;2023-02-28T04:11:33;19.85;;;10.73;;
66478;SDS011;53294;47.912;13.526;2023-02-28T04:14:05;22.65;;;12.85;;
66478;SDS011;53294;47.912;13.526;2023-02-28T04:16:34;19.73;;;11.55;;
66478;SDS011;53294;47.912;13.526;2023-02-28T04:19:03;20.48;;;11.07;;
66478;SDS011;53294;47.912;13.526;2023-02-28T04:21:32;20.83;;;11.95;;
66478;SDS011;53294;47.912;13.526;2023-02-28T04:24:08;22.70;;;12.05;;
66478;SDS011;53294;47.912;13.526;2023-02-28T04:26:41;22.10;;;11.77;;
66478;SDS011;53294;47.912;13.526;2023-02-28T04:29:10;22.30;;;12.48;;
66478;SDS011;53294;47.912;13.526;2023-02-28T04:31:39;21.15;;;11.40;;
66478;SDS011;53294;47.912;13.526;2023-02-28T04:34:05;21.55;;;13.05;;
66478;SDS011;53294;47.912;13.526;2023-02-28T04:36:32;26.17;;;14.02;;
66478;SDS011;53294;47.912;13.526;2023-02-28T04:38:59;20.08;;;11.15;;
66478;SDS011;53294;47.912;13.526;2023-02-28T04:41:26;25.25;;;12.85;;
66478;SDS011;53294;47.912;13.526;2023-02-28T04:43:56;23.77;;;12.32;;
66478;SDS011;53294;47.912;13.526;2023-02-28T04:46:23;24.60;;;12.77;;
66478;SDS011;53294;47.912;13.526;2023-02-28T04:48:50;22.10;;;12.45;;
66478;SDS011;53294;47.912;13.526;2023-02-28T04:51:17;23.95;;;13.05;;
66478;SDS011;53294;47.912;13.526;2023-02-28T04:53:45;25.88;;;13.82;;
66478;SDS011;53294;47.912;13.526;2023-02-28T04:56:13;26.52;;;13.93;;
66478;SDS011;53294;47.912;13.526;2023-02-28T04:58:42;22.05;;;12.57;;
66478;SDS011;53294;47.912;13.526;2023-02-28T05:03:52;23.17;;;13.25;;
66478;SDS011;53294;47.912;13.526;2023-02-28T05:06:21;23.63;;;12.07;;
66478;SDS011;53294;47.912;13.526;2023-02-28T05:08:50;26.15;;;14.05;;
66478;SDS011;53294;47.912;13.526;2023-02-28T05:11:19;23.42;;;13.73;;
66478;SDS011;53294;47.912;13.526;2023-02-28T05:13:47;26.42;;;14.30;;
66478;SDS011;53294;47.912;13.526;2023-02-28T05:16:15;24.38;;;13.20;;
66478;SDS011;53294;47.912;13.526;2023-02-28T05:18:42;24.52;;;13.48;;
66478;SDS011;53294;47.912;13.526;2023-02-28T05:21:20;25.80;;;13.57;;
66478;SDS011;53294;47.912;13.526;2023-02-28T05:23:51;26.05;;;15.10;;
66478;SDS011;53294;47.912;13.526;2023-02-28T05:26:18;27.00;;;15.13;;
66478;SDS011;53294;47.912;13.526;2023-02-28T05:28:46;25.50;;;13.38;;
66478;SDS011;53294;47.912;13.526;2023-02-28T05:31:13;28.13;;;14.38;;
66478;SDS011;53294;47.912;13.526;2023-02-28T05:33:40;28.98;;;15.02;;
66478;SDS011;53294;47.912;13.526;2023-02-28T05:36:06;32.45;;;15.20;;
66478;SDS011;53294;47.912;13.526;2023-02-28T05:38:33;24.90;;;14.52;;
66478;SDS011;53294;47.912;13.526;2023-02-28T05:41:09;23.02;;;13.52;;
66478;SDS011;53294;47.912;13.526;2023-02-28T05:43:37;30.70;;;15.23;;
66478;SDS011;53294;47.912;13.526;2023-02-28T05:46:05;24.73;;;14.57;;
66478;SDS011;53294;47.912;13.526;2023-02-28T05:48:36;24.58;;;13.07;;
66478;SDS011;53294;47.912;13.526;2023-02-28T05:51:04;28.25;;;14.98;;
66478;SDS011;53294;47.912;13.526;2023-02-28T05:53:32;29.85;;;14.32;;
66478;SDS011;53294;47.912;13.526;2023-02-28T05:55:59;27.13;;;14.82;;
66478;SDS011;53294;47.912;13.526;2023-02-28T05:58:26;25.75;;;13.48;;
66478;SDS011;53294;47.912;13.526;2023-02-28T06:00:58;27.05;;;15.50;;
66478;SDS011;53294;47.912;13.526;2023-02-28T06:03:25;25.45;;;13.82;;
66478;SDS011;53294;47.912;13.526;2023-02-28T06:05:53;26.25;;;14.27;;
66478;SDS011;53294;47.912;13.526;2023-02-28T06:08:20;23.88;;;14.00;;
66478;SDS011;53294;47.912;13.526;2023-02-28T06:10:47;24.60;;;13.35;;
66478;SDS011;53294;47.912;13.526;2023-02-28T06:13:13;32.95;;;16.00;;
66478;SDS011;53294;47.912;13.526;2023-02-28T06:15:40;28.40;;;15.75;;
66478;SDS011;53294;47.912;13.526;2023-02-28T06:18:07;26.67;;;14.07;;
66478;SDS011;53294;47.912;13.526;2023-02-28T06:20:34;25.80;;;15.20;;
66478;SDS011;53294;47.912;13.526;2023-02-28T06:23:02;27.80;;;15.52;;
66478;SDS011;53294;47.912;13.526;2023-02-28T06:25:29;26.90;;;14.52;;
66478;SDS011;53294;47.912;13.526;2023-02-28T06:27:55;25.67;;;13.88;;
66478;SDS011;53294;47.912;13.526;2023-02-28T06:30:22;25.27;;;13.43;;
66478;SDS011;53294;47.912;13.526;2023-02-28T06:32:52;22.90;;;13.65;;
66478;SDS011;53294;47.912;13.526;2023-02-28T06:35:19;22.88;;;13.98;;
66478;SDS011;53294;47.912;13.526;2023-02-28T06:37:46;24.50;;;14.45;;
66478;SDS011;53294;47.912;13.526;2023-02-28T06:40:13;25.35;;;14.50;;
66478;SDS011;53294;47.912;13.526;2023-02-28T06:42:41;25.95;;;14.80;;
66478;SDS011;53294;47.912;13.526;2023-02-28T06:45:09;23.45;;;14.30;;
66478;SDS011;53294;47.912;13.526;2023-02-28T06:47:37;22.20;;;12.10;;
66478;SDS011;53294;47.912;13.526;2023-02-28T06:50:05;23.50;;;14.55;;
66478;SDS011;53294;47.912;13.526;2023-02-28T06:52:33;23.00;;;13.73;;
66478;SDS011;53294;47.912;13.526;2023-02-28T06:55:03;20.83;;;12.32;;
66478;SDS011;53294;47.912;13.526;2023-02-28T06:57:32;23.83;;;13.65;;
66478;SDS011;53294;47.912;13.526;2023-02-28T07:00:02;24.40;;;14.15;;
66478;SDS011;53294;47.912;13.526;2023-02-28T07:05:04;23.55;;;12.02;;
66478;SDS011;53294;47.912;13.526;2023-02-28T07:07:31;22.08;;;12.88;;
66478;SDS011;53294;47.912;13.526;2023-02-28T07:09:58;26.15;;;14.18;;
66478;SDS011;53294;47.912;13.526;2023-02-28T07:12:25;24.88;;;14.48;;
66478;SDS011;53294;47.912;13.526;2023-02-28T07:14:51;23.35;;;14.07;;
66478;SDS011;53294;47.912;13.526;2023-02-28T07:17:18;24.25;;;13.60;;
66478;SDS011;53294;47.912;13.526;2023-02-28T07:19:45;23.60;;;13.20;;
66478;SDS011;53294;47.912;13.526;2023-02-28T07:22:11;25.65;;;13.45;;
66478;SDS011;53294;47.912;13.526;2023-02-28T07:24:41;26.13;;;14.65;;
66478;SDS011;53294;47.912;13.526;2023-02-28T07:27:07;22.92;;;13.63;;
66478;SDS011;53294;47.912;13.526;2023-02-28T07:29:34;22.77;;;13.45;;
66478;SDS011;53294;47.912;13.526;2023-02-28T07:32:01;22.85;;;12.65;;
66478;SDS011;53294;47.912;13.526;2023-02-28T07:34:27;27.20;;;13.75;;
66478;SDS011;53294;47.912;13.526;2023-02-28T07:36:54;27.27;;;15.02;;
66478;SDS011;53294;47.912;13.526;2023-02-28T07:39:21;24.88;;;13.80;;
66478;SDS011;53294;47.912;13.526;2023-02-28T07:41:48;23.13;;;13.27;;
66478;SDS011;53294;47.912;13.526;2023-02-28T07:44:15;26.77;;;15.30;;
66478;SDS011;53294;47.912;13.526;2023-02-28T07:46:42;24.65;;;13.57;;
66478;SDS011;53294;47.912;13.526;2023-02-28T07:49:09;22.73;;;13.90;;
66478;SDS011;53294;47.912;13.526;2023-02-28T07:51:35;23.60;;;13.98;;
66478;SDS011;53294;47.912;13.526;2023-02-28T07:54:02;23.60;;;13.35;;
66478;SDS011;53294;47.912;13.526;2023-02-28T07:56:29;23.98;;;13.57;;
66478;SDS011;53294;47.912;13.526;2023-02-28T07:58:56;20.13;;;12.43;;
66478;SDS011;53294;47.912;13.526;2023-02-28T08:01:23;18.33;;;12.02;;
66478;SDS011;53294;47.912;13.526;2023-02-28T08:03:50;21.48;;;12.15;;
66478;SDS011;53294;47.912;13.526;2023-02-28T08:06:20;22.65;;;13.15;;
66478;SDS011;53294;47.912;13.526;2023-02-28T08:08:48;20.70;;;11.77;;
66478;SDS011;53294;47.912;13.526;2023-02-28T08:11:16;23.67;;;14.23;;
66478;SDS011;53294;47.912;13.526;2023-02-28T08:13:44;20.58;;;12.63;;
66478;SDS011;53294;47.912;13.526;2023-02-28T08:16:11;22.92;;;12.85;;
66478;SDS011;53294;47.912;13.526;2023-02-28T08:18:51;20.05;;;11.25;;
66478;SDS011;53294;47.912;13.526;2023-02-28T08:21:19;21.38;;;12.68;;
66478;SDS011;53294;47.912;13.526;2023-02-28T08:23:47;20.52;;;11.85;;
66478;SDS011;53294;47.912;13.526;2023-02-28T08:26:16;20.13;;;11.93;;
66478;SDS011;53294;47.912;13.526;2023-02-28T08:28:43;20.92;;;11.38;;
66478;SDS011;53294;47.912;13.526;2023-02-28T08:31:11;18.60;;;11.70;;
66478;SDS011;53294;47.912;13.526;2023-02-28T08:33:40;21.65;;;12.35;;
66478;SDS011;53294;47.912;13.526;2023-02-28T08:36:08;21.15;;;13.13;;
66478;SDS011;53294;47.912;13.526;2023-02-28T08:38:36;22.83;;;12.93;;
66478;SDS011;53294;47.912;13.526;2023-02-28T08:41:05;20.23;;;12.98;;
66478;SDS011;53294;47.912;13.526;2023-02-28T08:43:35;22.30;;;12.80;;
66478;SDS011;53294;47.912;13.526;2023-02-28T08:46:02;22.35;;;13.05;;
66478;SDS011;53294;47.912;13.526;2023-02-28T08:48:30;20.30;;;11.95;;
66478;SDS011;53294;47.912;13.526;2023-02-28T08:51:04;23.35;;;12.13;;
66478;SDS011;53294;47.912;13.526;2023-02-28T08:53:34;21.30;;;13.52;;
66478;SDS011;53294;47.912;13.526;2023-02-28T08:56:03;21.10;;;11.95;;
66478;SDS011;53294;47.912;13.526;2023-02-28T08:58:40;18.67;;;11.25;;
66478;SDS011;53294;47.912;13.526;2023-02-28T09:01:11;21.88;;;13.40;;
66478;SDS011;53294;47.912;13.526;2023-02-28T09:03:41;17.63;;;11.93;;
66478;SDS011;53294;47.912;13.526;2023-02-28T09:06:09;24.92;;;13.00;;
66478;SDS011;53294;47.912;13.526;2023-02-28T09:08:37;18.13;;;11.70;;
66478;SDS011;53294;47.912;13.526;2023-02-28T09:11:05;19.73;;;11.65;;
66478;SDS011;53294;47.912;13.526;2023-02-28T09:13:32;21.60;;;13.70;;
66478;SDS011;53294;47.912;13.526;2023-02-28T09:15:59;21.45;;;12.82;;
66478;SDS011;53294;47.912;13.526;2023-02-28T09:18:27;17.27;;;11.68;;
66478;SDS011;53294;47.912;13.526;2023-02-28T09:20:54;18.15;;;12.05;;
66478;SDS011;53294;47.912;13.526;2023-02-28T09:23:21;20.83;;;12.82;;
66478;SDS011;53294;47.912;13.526;2023-02-28T09:25:51;18.27;;;12.05;;
66478;SDS011;53294;47.912;13.526;2023-02-28T09:28:20;19.77;;;12.63;;
66478;SDS011;53294;47.912;13.526;2023-02-28T09:30:49;20.15;;;12.80;;
66478;SDS011;53294;47.912;13.526;2023-02-28T09:33:19;20.50;;;12.25;;
66478;SDS011;53294;47.912;13.526;2023-02-28T09:35:47;18.75;;;12.43;;
66478;SDS011;53294;47.912;13.526;2023-02-28T09:38:15;19.48;;;12.30;;
66478;SDS011;53294;47.912;13.526;2023-02-28T09:40:47;21.65;;;12.68;;
66478;SDS011;53294;47.912;13.526;2023-02-28T09:43:16;19.77;;;12.55;;
66478;SDS011;53294;47.912;13.526;2023-02-28T09:45:52;19.05;;;13.15;;
66478;SDS011;53294;47.912;13.526;2023-02-28T09:48:36;21.13;;;12.20;;
66478;SDS011;53294;47.912;13.526;2023-02-28T09:53:47;17.40;;;12.13;;
66478;SDS011;53294;47.912;13.526;2023-02-28T09:56:23;16.85;;;10.85;;
66478;SDS011;53294;47.912;13.526;2023-02-28T09:59:18;16.83;;;11.90;;
66478;SDS011;53294;47.912;13.526;2023-02-28T10:10:32;15.73;;;11.07;;
66478;SDS011;53294;47.912;13.526;2023-02-28T10:13:06;16.75;;;12.05;;
66478;SDS011;53294;47.912;13.526;2023-02-28T10:15:40;19.67;;;12.73;;
66478;SDS011;53294;47.912;13.526;2023-02-28T10:18:11;21.92;;;12.88;;
66478;SDS011;53294;47.912;13.526;2023-02-28T10:20:41;19.13;;;13.38;;
66478;SDS011;53294;47.912;13.526;2023-02-28T10:23:12;17.88;;;11.90;;
66478;SDS011;53294;47.912;13.526;2023-02-28T10:25:50;18.67;;;13.15;;
66478;SDS011;53294;47.912;13.526;2023-02-28T10:28:21;19.42;;;12.73;;
66478;SDS011;53294;47.912;13.526;2023-02-28T10:30:49;18.05;;;11.25;;
66478;SDS011;53294;47.912;13.526;2023-02-28T10:33:22;18.63;;;11.00;;
66478;SDS011;53294;47.912;13.526;2023-02-28T10:36:01;19.10;;;12.38;;
66478;SDS011;53294;47.912;13.526;2023-02-28T10:38:33;18.35;;;11.95;;
66478;SDS011;53294;47.912;13.526;2023-02-28T10:41:03;19.02;;;13.02;;
66478;SDS011;53294;47.912;13.526;2023-02-28T10:43:53;15.80;;;11.95;;
66478;SDS011;53294;47.912;13.526;2023-02-28T10:46:40;17.92;;;12.25;;
66478;SDS011;53294;47.912;13.526;2023-02-28T10:49:17;18.90;;;12.40;;
66478;SDS011;53294;47.912;13.526;2023-02-28T10:51:49;17.90;;;12.80;;
66478;SDS011;53294;47.912;13.526;2023-02-28T10:54:20;15.23;;;11.45;;
66478;SDS011;53294;47.912;13.526;2023-02-28T10:59:45;16.20;;;11.73;;
66478;SDS011;53294;47.912;13.526;2023-02-28T11:05:21;16.02;;;11.15;;
66478;SDS011;53294;47.912;13.526;2023-02-28T11:08:07;17.95;;;12.43;;
66478;SDS011;53294;47.912;13.526;2023-02-28T11:10:37;16.92;;;11.50;;
66478;SDS011;53294;47.912;13.526;2023-02-28T11:13:05;16.27;;;11.10;;
66478;SDS011;53294;47.912;13.526;2023-02-28T11:15:32;15.43;;;10.60;;
66478;SDS011;53294;47.912;13.526;2023-02-28T11:18:01;16.70;;;11.57;;
66478;SDS011;53294;47.912;13.526;2023-02-28T11:20:49;15.82;;;10.57;;
66478;SDS011;53294;47.912;13.526;2023-02-28T11:23:18;15.30;;;10.27;;
66478;SDS011;53294;47.912;13.526;2023-02-28T11:25:51;17.52;;;12.80;;
66478;SDS011;53294;47.912;13.526;2023-02-28T11:28:33;14.75;;;10.48;;
66478;SDS011;53294;47.912;13.526;2023-02-28T11:33:32;14.65;;;11.18;;
66478;SDS011;53294;47.912;13.526;2023-02-28T11:36:17;16.92;;;11.75;;
66478;SDS011;53294;47.912;13.526;2023-02-28T11:38:56;16.17;;;10.85;;
66478;SDS011;53294;47.912;13.526;2023-02-28T11:46:49;14.15;;;10.30;;
66478;SDS011;53294;47.912;13.526;2023-02-28T11:52:01;13.40;;;8.98;;
66478;SDS011;53294;47.912;13.526;2023-02-28T12:00:02;16.85;;;11.48;;
66478;SDS011;53294;47.912;13.526;2023-02-28T12:05:46;16.35;;;9.85;;
66478;SDS011;53294;47.912;13.526;2023-02-28T12:25:00;15.57;;;10.90;;
66478;SDS011;53294;47.912;13.526;2023-02-28T12:27:36;16.02;;;10.73;;
66478;SDS011;53294;47.912;13.526;2023-02-28T12:32:57;16.33;;;11.57;;
66478;SDS011;53294;47.912;13.526;2023-02-28T12:35:38;16.30;;;11.82;;
66478;SDS011;53294;47.912;13.526;2023-02-28T12:38:21;18.70;;;12.05;;
66478;SDS011;53294;47.912;13.526;2023-02-28T12:40:56;16.05;;;10.93;;
66478;SDS011;53294;47.912;13.526;2023-02-28T12:43:34;18.42;;;10.80;;
66478;SDS011;53294;47.912;13.526;2023-02-28T12:48:57;15.27;;;10.82;;
66478;SDS011;53294;47.912;13.526;2023-02-28T12:51:28;14.38;;;9.60;;
66478;SDS011;53294;47.912;13.526;2023-02-28T12:56:37;12.95;;;9.23;;
66478;SDS011;53294;47.912;13.526;2023-02-28T12:59:10;15.20;;;10.20;;
66478;SDS011;53294;47.912;13.526;2023-02-28T13:10:05;17.73;;;12.02;;
66478;SDS011;53294;47.912;13.526;2023-02-28T13:12:34;16.73;;;9.93;;
66478;SDS011;53294;47.912;13.526;2023-02-28T13:17:39;14.68;;;10.48;;
66478;SDS011;53294;47.912;13.526;2023-02-28T13:20:18;14.30;;;11.13;;
66478;SDS011;53294;47.912;13.526;2023-02-28T13:22:50;15.48;;;10.25;;
66478;SDS011;53294;47.912;13.526;2023-02-28T13:27:45;13.60;;;9.25;;
66478;SDS011;53294;47.912;13.526;2023-02-28T13:38:48;18.42;;;10.57;;
66478;SDS011;53294;47.912;13.526;2023-02-28T13:49:31;15.43;;;9.80;;
66478;SDS011;53294;47.912;13.526;2023-02-28T14:06:07;13.98;;;10.45;;
66478;SDS011;53294;47.912;13.526;2023-02-28T14:08:35;16.85;;;10.52;;
66478;SDS011;53294;47.912;13.526;2023-02-28T14:11:04;17.90;;;10.93;;
66478;SDS011;53294;47.912;13.526;2023-02-28T14:13:41;14.73;;;10.23;;
66478;SDS011;53294;47.912;13.526;2023-02-28T14:16:14;15.05;;;10.15;;
66478;SDS011;53294;47.912;13.526;2023-02-28T14:18:59;14.32;;;10.02;;
66478;SDS011;53294;47.912;13.526;2023-02-28T14:21:34;14.70;;;9.90;;
66478;SDS011;53294;47.912;13.526;2023-02-28T14:29:36;15.90;;;10.00;;
66478;SDS011;53294;47.912;13.526;2023-02-28T14:35:09;15.68;;;10.40;;
66478;SDS011;53294;47.912;13.526;2023-02-28T14:37:43;14.20;;;10.63;;
66478;SDS011;53294;47.912;13.526;2023-02-28T14:40:22;18.58;;;11.93;;
66478;SDS011;53294;47.912;13.526;2023-02-28T14:42:57;16.83;;;10.88;;
66478;SDS011;53294;47.912;13.526;2023-02-28T14:45:27;14.20;;;9.73;;
66478;SDS011;53294;47.912;13.526;2023-02-28T14:48:04;15.55;;;10.85;;
66478;SDS011;53294;47.912;13.526;2023-02-28T14:50:36;14.20;;;10.32;;
66478;SDS011;53294;47.912;13.526;2023-02-28T14:53:03;18.45;;;11.00;;
66478;SDS011;53294;47.912;13.526;2023-02-28T14:55:43;13.93;;;9.55;;
66478;SDS011;53294;47.912;13.526;2023-02-28T15:00:58;17.27;;;12.00;;
66478;SDS011;53294;47.912;13.526;2023-02-28T15:03:30;13.82;;;9.77;;
66478;SDS011;53294;47.912;13.526;2023-02-28T15:06:12;16.98;;;11.20;;
66478;SDS011;53294;47.912;13.526;2023-02-28T15:08:43;13.90;;;10.13;;
66478;SDS011;53294;47.912;13.526;2023-02-28T15:11:14;17.10;;;11.68;;
66478;SDS011;53294;47.912;13.526;2023-02-28T15:13:49;17.42;;;11.18;;
66478;SDS011;53294;47.912;13.526;2023-02-28T15:16:22;17.08;;;11.45;;
66478;SDS011;53294;47.912;13.526;2023-02-28T15:19:20;16.55;;;10.65;;
66478;SDS011;53294;47.912;13.526;2023-02-28T15:22:02;19.63;;;12.32;;
66478;SDS011;53294;47.912;13.526;2023-02-28T15:24:39;18.52;;;12.40;;
66478;SDS011;53294;47.912;13.526;2023-02-28T15:27:14;17.73;;;12.50;;
66478;SDS011;53294;47.912;13.526;2023-02-28T15:29:51;16.73;;;11.23;;
66478;SDS011;53294;47.912;13.526;2023-02-28T15:32:29;15.63;;;11.20;;
66478;SDS011;53294;47.912;13.526;2023-02-28T15:35:18;18.33;;;11.32;;
66478;SDS011;53294;47.912;13.526;2023-02-28T15:37:47;20.42;;;14.25;;
66478;SDS011;53294;47.912;13.526;2023-02-28T15:40:37;18.50;;;11.38;;
66478;SDS011;53294;47.912;13.526;2023-02-28T15:43:14;18.50;;;11.50;;
66478;SDS011;53294;47.912;13.526;2023-02-28T15:45:47;19.85;;;12.73;;
66478;SDS011;53294;47.912;13.526;2023-02-28T15:48:23;19.55;;;13.70;;
66478;SDS011;53294;47.912;13.526;2023-02-28T15:50:54;20.33;;;12.63;;
66478;SDS011;53294;47.912;13.526;2023-02-28T15:53:46;19.02;;;12.30;;
66478;SDS011;53294;47.912;13.526;2023-02-28T15:58:57;17.77;;;12.90;;
66478;SDS011;53294;47.912;13.526;2023-02-28T16:01:32;19.42;;;12.93;;
66478;SDS011;53294;47.912;13.526;2023-02-28T16:06:43;17.55;;;10.85;;
66478;SDS011;53294;47.912;13.526;2023-02-28T16:09:12;20.08;;;12.13;;
66478;SDS011;53294;47.912;13.526;2023-02-28T16:11:42;17.00;;;10.77;;
66478;SDS011;53294;47.912;13.526;2023-02-28T16:14:16;15.75;;;10.00;;
66478;SDS011;53294;47.912;13.526;2023-02-28T16:16:50;18.98;;;11.70;;
66478;SDS011;53294;47.912;13.526;2023-02-28T16:19:18;18.85;;;12.38;;
66478;SDS011;53294;47.912;13.526;2023-02-28T16:21:46;18.27;;;11.75;;
66478;SDS011;53294;47.912;13.526;2023-02-28T16:24:12;17.05;;;11.65;;
66478;SDS011;53294;47.912;13.526;2023-02-28T16:26:44;18.67;;;11.25;;
66478;SDS011;53294;47.912;13.526;2023-02-28T16:29:18;22.40;;;12.07;;
66478;SDS011;53294;47.912;13.526;2023-02-28T16:31:52;20.10;;;12.50;;
66478;SDS011;53294;47.912;13.526;2023-02-28T16:34:20;22.98;;;13.48;;
66478;SDS011;53294;47.912;13.526;2023-02-28T16:36:49;23.25;;;13.95;;
66478;SDS011;53294;47.912;13.526;2023-02-28T16:39:16;21.52;;;12.80;;
66478;SDS011;53294;47.912;13.526;2023-02-28T16:41:43;23.38;;;14.30;;
66478;SDS011;53294;47.912;13.526;2023-02-28T16:44:13;22.80;;;12.68;;
66478;SDS011;53294;47.912;13.526;2023-02-28T16:46:47;16.20;;;11.15;;
66478;SDS011;53294;47.912;13.526;2023-02-28T16:49:13;19.15;;;12.23;;
66478;SDS011;53294;47.912;13.526;2023-02-28T16:51:40;21.55;;;12.63;;
66478;SDS011;53294;47.912;13.526;2023-02-28T16:54:07;22.83;;;14.07;;
66478;SDS011;53294;47.912;13.526;2023-02-28T16:56:33;21.38;;;12.40;;
66478;SDS011;53294;47.912;13.526;2023-02-28T16:59:01;21.80;;;13.27;;
66478;SDS011;53294;47.912;13.526;2023-02-28T17:01:28;20.08;;;12.63;;
66478;SDS011;53294;47.912;13.526;2023-02-28T17:03:55;21.27;;;12.98;;
66478;SDS011;53294;47.912;13.526;2023-02-28T17:06:23;23.35;;;14.15;;
66478;SDS011;53294;47.912;13.526;2023-02-28T17:08:53;22.33;;;12.57;;
66478;SDS011;53294;47.912;13.526;2023-02-28T17:11:21;19.48;;;12.77;;
66478;SDS011;53294;47.912;13.526;2023-02-28T17:13:48;24.42;;;13.55;;
66478;SDS011;53294;47.912;13.526;2023-02-28T17:18:57;22.20;;;12.95;;
66478;SDS011;53294;47.912;13.526;2023-02-28T17:21:29;23.95;;;12.80;;
66478;SDS011;53294;47.912;13.526;2023-02-28T17:23:57;23.35;;;13.75;;
66478;SDS011;53294;47.912;13.526;2023-02-28T17:26:24;24.10;;;13.32;;